sensor_id;sensor_type;location;lat;lon;timestamp;pressure;altitude;pressure_sealevel;temperature;humidity
81162;BME280;70638;-33.792;151.032;2024-03-07T00:01:52;101603.36;;;25.55;100.00
81162;BME280;70638;-33.792;151.032;2024-03-07T00:04:23;101597.56;;;26.07;100.00
81162;BME280;70638;-33.792;151.032;2024-03-07T00:06:54;101606.81;;;26.16;100.00
81162;BME280;70638;-33.792;151.032;2024-03-07T00:09:27;101591.74;;;26.12;100.00
81162;BME280;70638;-33.792;151.032;2024-03-07T00:11:54;101595.87;;;26.10;100.00
81162;BME280;70638;-33.792;151.032;2024-03-07T00:14:29;101592.73;;;26.27;100.00
81162;BME280;70638;-33.792;151.032;2024-03-07T00:16:58;101593.08;;;26.69;100.00
81162;BME280;70638;-33.792;151.032;2024-03-07T00:19:30;101603.21;;;26.86;100.00
81162;BME280;70638;-33.792;151.032;2024-03-07T00:21:56;101596.19;;;26.62;100.00
81162;BME280;70638;-33.792;151.032;2024-03-07T00:24:26;101605.83;;;27.11;100.00
81162;BME280;70638;-33.792;151.032;2024-03-07T00:26:56;101612.03;;;26.27;100.00
81162;BME280;70638;-33.792;151.032;2024-03-07T00:29:27;101603.67;;;26.27;100.00
81162;BME280;70638;-33.792;151.032;2024-03-07T00:31:57;101607.89;;;26.43;100.00
81162;BME280;70638;-33.792;151.032;2024-03-07T00:34:28;101607.13;;;26.30;100.00
81162;BME280;70638;-33.792;151.032;2024-03-07T00:37:01;101613.95;;;26.53;100.00
81162;BME280;70638;-33.792;151.032;2024-03-07T00:39:30;101608.48;;;26.37;100.00
81162;BME280;70638;-33.792;151.032;2024-03-07T00:42:01;101615.34;;;26.56;100.00
81162;BME280;70638;-33.792;151.032;2024-03-07T00:44:31;101606.65;;;26.51;100.00
81162;BME280;70638;-33.792;151.032;2024-03-07T00:47:08;101602.81;;;26.46;100.00
81162;BME280;70638;-33.792;151.032;2024-03-07T00:49:36;101624.16;;;26.81;100.00
81162;BME280;70638;-33.792;151.032;2024-03-07T00:52:03;101600.17;;;26.92;100.00
81162;BME280;70638;-33.792;151.032;2024-03-07T00:54:37;101602.83;;;26.99;100.00
81162;BME280;70638;-33.792;151.032;2024-03-07T00:57:05;101604.12;;;26.87;100.00
81162;BME280;70638;-33.792;151.032;2024-03-07T00:59:36;101600.72;;;26.51;100.00
81162;BME280;70638;-33.792;151.032;2024-03-07T01:02:07;101605.31;;;26.46;100.00
81162;BME280;70638;-33.792;151.032;2024-03-07T01:04:40;101588.69;;;26.98;100.00
81162;BME280;70638;-33.792;151.032;2024-03-07T01:07:08;101585.23;;;26.93;100.00
81162;BME280;70638;-33.792;151.032;2024-03-07T01:09:38;101587.27;;;27.02;100.00
81162;BME280;70638;-33.792;151.032;2024-03-07T01:12:09;101576.05;;;27.08;100.00
81162;BME280;70638;-33.792;151.032;2024-03-07T01:14:40;101580.28;;;27.26;100.00
81162;BME280;70638;-33.792;151.032;2024-03-07T01:17:11;101579.08;;;27.29;100.00
81162;BME280;70638;-33.792;151.032;2024-03-07T01:19:42;101593.39;;;27.14;100.00
81162;BME280;70638;-33.792;151.032;2024-03-07T01:22:11;101586.41;;;26.73;100.00
81162;BME280;70638;-33.792;151.032;2024-03-07T01:24:42;101576.58;;;26.79;100.00
81162;BME280;70638;-33.792;151.032;2024-03-07T01:27:13;101581.06;;;27.00;100.00
81162;BME280;70638;-33.792;151.032;2024-03-07T01:29:45;101575.17;;;26.89;100.00
81162;BME280;70638;-33.792;151.032;2024-03-07T01:32:15;101568.48;;;26.76;100.00
81162;BME280;70638;-33.792;151.032;2024-03-07T01:34:46;101573.33;;;26.90;100.00
81162;BME280;70638;-33.792;151.032;2024-03-07T01:37:16;101567.17;;;27.08;100.00
81162;BME280;70638;-33.792;151.032;2024-03-07T01:39:47;101566.73;;;26.67;100.00
81162;BME280;70638;-33.792;151.032;2024-03-07T01:42:18;101565.09;;;26.45;100.00
81162;BME280;70638;-33.792;151.032;2024-03-07T01:44:48;101571.03;;;26.88;100.00
81162;BME280;70638;-33.792;151.032;2024-03-07T01:47:21;101577.14;;;26.80;100.00
81162;BME280;70638;-33.792;151.032;2024-03-07T01:49:48;101565.41;;;26.83;100.00
81162;BME280;70638;-33.792;151.032;2024-03-07T01:52:18;101572.81;;;27.01;100.00
81162;BME280;70638;-33.792;151.032;2024-03-07T01:54:54;101564.53;;;26.86;100.00
81162;BME280;70638;-33.792;151.032;2024-03-07T01:57:19;101580.03;;;26.61;100.00
81162;BME280;70638;-33.792;151.032;2024-03-07T01:59:49;101572.27;;;26.21;100.00
81162;BME280;70638;-33.792;151.032;2024-03-07T02:02:20;101573.92;;;26.39;100.00
81162;BME280;70638;-33.792;151.032;2024-03-07T02:04:50;101570.19;;;26.58;100.00
81162;BME280;70638;-33.792;151.032;2024-03-07T02:07:20;101569.63;;;26.68;100.00
81162;BME280;70638;-33.792;151.032;2024-03-07T02:10:01;101577.91;;;26.72;100.00
81162;BME280;70638;-33.792;151.032;2024-03-07T02:12:21;101568.25;;;26.91;100.00
81162;BME280;70638;-33.792;151.032;2024-03-07T02:14:51;101571.72;;;27.23;100.00
81162;BME280;70638;-33.792;151.032;2024-03-07T02:17:26;101575.92;;;27.47;100.00
81162;BME280;70638;-33.792;151.032;2024-03-07T02:19:51;101575.91;;;26.90;100.00
81162;BME280;70638;-33.792;151.032;2024-03-07T02:22:22;101582.83;;;26.74;100.00
81162;BME280;70638;-33.792;151.032;2024-03-07T02:24:56;101582.74;;;26.80;100.00
81162;BME280;70638;-33.792;151.032;2024-03-07T02:27:22;101579.47;;;26.83;100.00
81162;BME280;70638;-33.792;151.032;2024-03-07T02:29:54;101576.75;;;27.42;100.00
81162;BME280;70638;-33.792;151.032;2024-03-07T02:32:26;101568.46;;;27.72;100.00
81162;BME280;70638;-33.792;151.032;2024-03-07T02:34:53;101569.77;;;27.58;100.00
81162;BME280;70638;-33.792;151.032;2024-03-07T02:37:24;101561.41;;;28.05;100.00
81162;BME280;70638;-33.792;151.032;2024-03-07T02:39:54;101576.41;;;27.48;100.00
81162;BME280;70638;-33.792;151.032;2024-03-07T02:42:24;101571.03;;;27.23;100.00
81162;BME280;70638;-33.792;151.032;2024-03-07T02:45:00;101570.41;;;27.46;100.00
81162;BME280;70638;-33.792;151.032;2024-03-07T02:47:26;101576.45;;;27.12;100.00
81162;BME280;70638;-33.792;151.032;2024-03-07T02:49:56;101582.23;;;26.42;100.00
81162;BME280;70638;-33.792;151.032;2024-03-07T02:52:32;101573.05;;;26.69;100.00
81162;BME280;70638;-33.792;151.032;2024-03-07T02:54:56;101565.61;;;27.05;100.00
81162;BME280;70638;-33.792;151.032;2024-03-07T02:57:30;101557.92;;;27.32;100.00
81162;BME280;70638;-33.792;151.032;2024-03-07T02:59:56;101568.96;;;27.18;100.00
81162;BME280;70638;-33.792;151.032;2024-03-07T03:02:27;101575.38;;;27.31;100.00
81162;BME280;70638;-33.792;151.032;2024-03-07T03:05:00;101565.16;;;27.19;100.00
81162;BME280;70638;-33.792;151.032;2024-03-07T03:07:27;101555.73;;;27.46;100.00
81162;BME280;70638;-33.792;151.032;2024-03-07T03:09:57;101554.36;;;27.32;100.00
81162;BME280;70638;-33.792;151.032;2024-03-07T03:12:28;101549.17;;;27.15;100.00
81162;BME280;70638;-33.792;151.032;2024-03-07T03:14:58;101562.12;;;27.01;100.00
81162;BME280;70638;-33.792;151.032;2024-03-07T03:17:29;101550.71;;;26.84;100.00
81162;BME280;70638;-33.792;151.032;2024-03-07T03:20:00;101552.44;;;27.04;100.00
81162;BME280;70638;-33.792;151.032;2024-03-07T03:22:31;101549.45;;;27.37;100.00
81162;BME280;70638;-33.792;151.032;2024-03-07T03:25:09;101544.66;;;27.60;100.00
81162;BME280;70638;-33.792;151.032;2024-03-07T03:27:35;101547.47;;;27.54;100.00
81162;BME280;70638;-33.792;151.032;2024-03-07T03:30:03;101547.53;;;27.73;100.00
81162;BME280;70638;-33.792;151.032;2024-03-07T03:32:33;101546.72;;;27.42;100.00
81162;BME280;70638;-33.792;151.032;2024-03-07T03:35:07;101545.45;;;27.52;100.00
81162;BME280;70638;-33.792;151.032;2024-03-07T03:37:42;101534.92;;;27.71;100.00
81162;BME280;70638;-33.792;151.032;2024-03-07T03:40:12;101543.95;;;27.52;100.00
81162;BME280;70638;-33.792;151.032;2024-03-07T03:42:43;101539.14;;;27.30;100.00
81162;BME280;70638;-33.792;151.032;2024-03-07T03:45:10;101542.95;;;27.15;100.00
81162;BME280;70638;-33.792;151.032;2024-03-07T03:47:56;101543.17;;;27.23;100.00
81162;BME280;70638;-33.792;151.032;2024-03-07T03:50:11;101533.07;;;27.05;100.00
81162;BME280;70638;-33.792;151.032;2024-03-07T03:52:43;101545.69;;;27.02;100.00
81162;BME280;70638;-33.792;151.032;2024-03-07T03:55:12;101544.84;;;26.90;100.00
81162;BME280;70638;-33.792;151.032;2024-03-07T03:57:39;101543.98;;;26.84;100.00
81162;BME280;70638;-33.792;151.032;2024-03-07T04:00:17;101536.19;;;27.02;100.00
81162;BME280;70638;-33.792;151.032;2024-03-07T04:02:46;101527.94;;;27.24;100.00
81162;BME280;70638;-33.792;151.032;2024-03-07T04:05:12;101531.56;;;27.24;100.00
81162;BME280;70638;-33.792;151.032;2024-03-07T04:07:41;101521.02;;;27.30;100.00
81162;BME280;70638;-33.792;151.032;2024-03-07T04:10:12;101520.04;;;27.49;100.00
81162;BME280;70638;-33.792;151.032;2024-03-07T04:12:48;101523.92;;;27.17;100.00
81162;BME280;70638;-33.792;151.032;2024-03-07T04:15:14;101525.52;;;26.73;100.00
81162;BME280;70638;-33.792;151.032;2024-03-07T04:17:43;101518.72;;;26.32;100.00
81162;BME280;70638;-33.792;151.032;2024-03-07T04:20:16;101520.84;;;26.48;100.00
81162;BME280;70638;-33.792;151.032;2024-03-07T04:22:43;101518.58;;;26.65;100.00
81162;BME280;70638;-33.792;151.032;2024-03-07T04:25:14;101508.47;;;27.08;100.00
81162;BME280;70638;-33.792;151.032;2024-03-07T04:27:44;101506.54;;;27.19;100.00
81162;BME280;70638;-33.792;151.032;2024-03-07T04:30:15;101504.61;;;26.88;100.00
81162;BME280;70638;-33.792;151.032;2024-03-07T04:32:45;101497.34;;;27.13;100.00
81162;BME280;70638;-33.792;151.032;2024-03-07T04:35:16;101491.22;;;27.41;100.00
81162;BME280;70638;-33.792;151.032;2024-03-07T04:37:48;101496.14;;;27.04;100.00
81162;BME280;70638;-33.792;151.032;2024-03-07T04:40:20;101499.14;;;26.88;100.00
81162;BME280;70638;-33.792;151.032;2024-03-07T04:42:54;101502.20;;;27.01;100.00
81162;BME280;70638;-33.792;151.032;2024-03-07T04:45:24;101502.86;;;26.77;100.00
81162;BME280;70638;-33.792;151.032;2024-03-07T04:47:50;101508.04;;;26.77;100.00
81162;BME280;70638;-33.792;151.032;2024-03-07T04:50:23;101509.16;;;26.62;100.00
81162;BME280;70638;-33.792;151.032;2024-03-07T04:52:51;101513.41;;;26.88;100.00
81162;BME280;70638;-33.792;151.032;2024-03-07T04:55:21;101501.09;;;26.81;100.00
81162;BME280;70638;-33.792;151.032;2024-03-07T04:57:52;101505.22;;;26.87;100.00
81162;BME280;70638;-33.792;151.032;2024-03-07T05:00:31;101507.94;;;26.84;100.00
81162;BME280;70638;-33.792;151.032;2024-03-07T05:02:53;101508.39;;;26.67;100.00
81162;BME280;70638;-33.792;151.032;2024-03-07T05:05:28;101514.58;;;26.47;100.00
81162;BME280;70638;-33.792;151.032;2024-03-07T05:07:54;101523.23;;;26.08;100.00
81162;BME280;70638;-33.792;151.032;2024-03-07T05:10:25;101522.60;;;25.93;100.00
81162;BME280;70638;-33.792;151.032;2024-03-07T05:12:56;101527.63;;;25.89;100.00
81162;BME280;70638;-33.792;151.032;2024-03-07T05:15:28;101522.24;;;25.82;100.00
81162;BME280;70638;-33.792;151.032;2024-03-07T05:17:59;101518.80;;;25.69;100.00
81162;BME280;70638;-33.792;151.032;2024-03-07T05:20:30;101516.48;;;25.56;100.00
81162;BME280;70638;-33.792;151.032;2024-03-07T05:23:03;101530.52;;;25.40;100.00
81162;BME280;70638;-33.792;151.032;2024-03-07T05:25:28;101528.05;;;25.33;100.00
81162;BME280;70638;-33.792;151.032;2024-03-07T05:27:59;101530.51;;;25.27;100.00
81162;BME280;70638;-33.792;151.032;2024-03-07T05:30:31;101523.48;;;25.28;100.00
81162;BME280;70638;-33.792;151.032;2024-03-07T05:33:02;101529.58;;;25.25;100.00
81162;BME280;70638;-33.792;151.032;2024-03-07T05:35:32;101531.20;;;25.14;100.00
81162;BME280;70638;-33.792;151.032;2024-03-07T05:38:04;101530.39;;;25.16;100.00
81162;BME280;70638;-33.792;151.032;2024-03-07T05:40:31;101533.41;;;25.24;100.00
81162;BME280;70638;-33.792;151.032;2024-03-07T05:43:02;101534.47;;;25.22;100.00
81162;BME280;70638;-33.792;151.032;2024-03-07T05:45:40;101538.23;;;25.16;100.00
81162;BME280;70638;-33.792;151.032;2024-03-07T05:48:13;101538.98;;;25.08;100.00
81162;BME280;70638;-33.792;151.032;2024-03-07T05:50:34;101551.06;;;25.02;100.00
81162;BME280;70638;-33.792;151.032;2024-03-07T05:53:09;101554.39;;;25.04;100.00
81162;BME280;70638;-33.792;151.032;2024-03-07T05:55:40;101551.70;;;25.13;100.00
81162;BME280;70638;-33.792;151.032;2024-03-07T05:58:06;101555.00;;;25.03;100.00
81162;BME280;70638;-33.792;151.032;2024-03-07T06:00:40;101557.80;;;25.09;100.00
81162;BME280;70638;-33.792;151.032;2024-03-07T06:03:07;101558.20;;;25.07;100.00
81162;BME280;70638;-33.792;151.032;2024-03-07T06:05:37;101558.09;;;25.08;100.00
81162;BME280;70638;-33.792;151.032;2024-03-07T06:08:10;101550.08;;;25.22;100.00
81162;BME280;70638;-33.792;151.032;2024-03-07T06:10:38;101548.59;;;25.37;100.00
81162;BME280;70638;-33.792;151.032;2024-03-07T06:13:08;101541.48;;;25.50;100.00
81162;BME280;70638;-33.792;151.032;2024-03-07T06:15:38;101546.28;;;25.62;100.00
81162;BME280;70638;-33.792;151.032;2024-03-07T06:18:08;101547.78;;;25.74;100.00
81162;BME280;70638;-33.792;151.032;2024-03-07T06:20:39;101546.65;;;25.82;100.00
81162;BME280;70638;-33.792;151.032;2024-03-07T06:23:09;101544.06;;;26.09;100.00
81162;BME280;70638;-33.792;151.032;2024-03-07T06:25:49;101544.58;;;26.06;100.00
81162;BME280;70638;-33.792;151.032;2024-03-07T06:28:18;101542.84;;;25.82;100.00
81162;BME280;70638;-33.792;151.032;2024-03-07T06:30:42;101541.23;;;25.74;100.00
81162;BME280;70638;-33.792;151.032;2024-03-07T06:33:24;101540.78;;;25.69;100.00
81162;BME280;70638;-33.792;151.032;2024-03-07T06:35:44;101553.92;;;25.66;100.00
81162;BME280;70638;-33.792;151.032;2024-03-07T06:38:12;101556.80;;;25.51;100.00
81162;BME280;70638;-33.792;151.032;2024-03-07T06:40:45;101564.06;;;25.34;100.00
81162;BME280;70638;-33.792;151.032;2024-03-07T06:43:13;101571.52;;;25.28;100.00
81162;BME280;70638;-33.792;151.032;2024-03-07T06:45:44;101581.89;;;25.27;100.00
81162;BME280;70638;-33.792;151.032;2024-03-07T06:48:17;101578.20;;;25.22;100.00
81162;BME280;70638;-33.792;151.032;2024-03-07T06:50:47;101578.06;;;25.15;100.00
81162;BME280;70638;-33.792;151.032;2024-03-07T06:53:16;101583.67;;;25.03;100.00
81162;BME280;70638;-33.792;151.032;2024-03-07T06:55:47;101587.70;;;25.00;100.00
81162;BME280;70638;-33.792;151.032;2024-03-07T06:58:17;101598.25;;;24.97;100.00
81162;BME280;70638;-33.792;151.032;2024-03-07T07:00:48;101596.14;;;24.90;100.00
81162;BME280;70638;-33.792;151.032;2024-03-07T07:03:26;101595.82;;;24.90;100.00
81162;BME280;70638;-33.792;151.032;2024-03-07T07:05:51;101599.98;;;24.84;100.00
81162;BME280;70638;-33.792;151.032;2024-03-07T07:08:19;101599.94;;;24.69;100.00
81162;BME280;70638;-33.792;151.032;2024-03-07T07:10:50;101598.33;;;24.72;100.00
81162;BME280;70638;-33.792;151.032;2024-03-07T07:13:21;101602.16;;;24.61;100.00
81162;BME280;70638;-33.792;151.032;2024-03-07T07:15:51;101596.70;;;24.59;100.00
81162;BME280;70638;-33.792;151.032;2024-03-07T07:18:23;101598.87;;;24.66;100.00
81162;BME280;70638;-33.792;151.032;2024-03-07T07:20:54;101603.50;;;24.58;100.00
81162;BME280;70638;-33.792;151.032;2024-03-07T07:23:23;101607.78;;;24.54;100.00
81162;BME280;70638;-33.792;151.032;2024-03-07T07:25:54;101612.05;;;24.41;100.00
81162;BME280;70638;-33.792;151.032;2024-03-07T07:28:25;101622.12;;;24.36;100.00
81162;BME280;70638;-33.792;151.032;2024-03-07T07:30:58;101626.25;;;24.30;100.00
81162;BME280;70638;-33.792;151.032;2024-03-07T07:33:34;101632.84;;;24.28;100.00
81162;BME280;70638;-33.792;151.032;2024-03-07T07:35:59;101634.19;;;24.29;100.00
81162;BME280;70638;-33.792;151.032;2024-03-07T07:38:26;101639.84;;;24.25;100.00
81162;BME280;70638;-33.792;151.032;2024-03-07T07:40:57;101642.88;;;24.13;100.00
81162;BME280;70638;-33.792;151.032;2024-03-07T07:43:28;101651.07;;;24.12;100.00
81162;BME280;70638;-33.792;151.032;2024-03-07T07:45:58;101654.78;;;24.10;100.00
81162;BME280;70638;-33.792;151.032;2024-03-07T07:48:33;101654.20;;;24.04;100.00
81162;BME280;70638;-33.792;151.032;2024-03-07T07:50:59;101659.56;;;24.02;100.00
81162;BME280;70638;-33.792;151.032;2024-03-07T07:53:30;101655.97;;;23.96;100.00
81162;BME280;70638;-33.792;151.032;2024-03-07T07:56:01;101661.20;;;23.91;100.00
81162;BME280;70638;-33.792;151.032;2024-03-07T07:58:32;101669.36;;;23.89;100.00
81162;BME280;70638;-33.792;151.032;2024-03-07T08:01:03;101674.64;;;23.82;100.00
81162;BME280;70638;-33.792;151.032;2024-03-07T08:03:35;101681.22;;;23.78;100.00
81162;BME280;70638;-33.792;151.032;2024-03-07T08:06:08;101686.96;;;23.74;100.00
81162;BME280;70638;-33.792;151.032;2024-03-07T08:08:35;101696.48;;;23.65;100.00
81162;BME280;70638;-33.792;151.032;2024-03-07T08:11:10;101695.74;;;23.63;100.00
81162;BME280;70638;-33.792;151.032;2024-03-07T08:13:35;101701.30;;;23.66;100.00
81162;BME280;70638;-33.792;151.032;2024-03-07T08:16:07;101698.45;;;23.65;100.00
81162;BME280;70638;-33.792;151.032;2024-03-07T08:18:37;101697.21;;;23.63;100.00
81162;BME280;70638;-33.792;151.032;2024-03-07T08:21:13;101701.77;;;23.62;100.00
81162;BME280;70638;-33.792;151.032;2024-03-07T08:23:38;101705.30;;;23.60;100.00
81162;BME280;70638;-33.792;151.032;2024-03-07T08:26:10;101707.61;;;23.55;100.00
81162;BME280;70638;-33.792;151.032;2024-03-07T08:28:40;101710.67;;;23.56;100.00
81162;BME280;70638;-33.792;151.032;2024-03-07T08:31:13;101715.14;;;23.58;100.00
81162;BME280;70638;-33.792;151.032;2024-03-07T08:33:41;101710.20;;;23.55;100.00
81162;BME280;70638;-33.792;151.032;2024-03-07T08:36:13;101710.12;;;23.46;100.00
81162;BME280;70638;-33.792;151.032;2024-03-07T08:38:43;101710.58;;;23.45;100.00
81162;BME280;70638;-33.792;151.032;2024-03-07T08:41:14;101712.92;;;23.43;100.00
81162;BME280;70638;-33.792;151.032;2024-03-07T08:43:47;101720.96;;;23.38;100.00
81162;BME280;70638;-33.792;151.032;2024-03-07T08:46:14;101719.81;;;23.34;100.00
81162;BME280;70638;-33.792;151.032;2024-03-07T08:48:55;101726.00;;;23.34;100.00
81162;BME280;70638;-33.792;151.032;2024-03-07T08:51:25;101732.11;;;23.30;100.00
81162;BME280;70638;-33.792;151.032;2024-03-07T08:53:49;101730.99;;;23.31;100.00
81162;BME280;70638;-33.792;151.032;2024-03-07T08:56:16;101733.95;;;23.29;100.00
81162;BME280;70638;-33.792;151.032;2024-03-07T08:58:47;101740.33;;;23.27;100.00
81162;BME280;70638;-33.792;151.032;2024-03-07T09:01:18;101739.59;;;23.22;100.00
81162;BME280;70638;-33.792;151.032;2024-03-07T09:03:49;101743.52;;;23.24;100.00
81162;BME280;70638;-33.792;151.032;2024-03-07T09:06:20;101745.46;;;23.21;100.00
81162;BME280;70638;-33.792;151.032;2024-03-07T09:08:50;101749.53;;;23.16;100.00
81162;BME280;70638;-33.792;151.032;2024-03-07T09:11:21;101756.41;;;23.06;100.00
81162;BME280;70638;-33.792;151.032;2024-03-07T09:13:52;101761.08;;;23.03;100.00
81162;BME280;70638;-33.792;151.032;2024-03-07T09:16:21;101759.38;;;23.01;100.00
81162;BME280;70638;-33.792;151.032;2024-03-07T09:18:53;101759.78;;;23.04;100.00
81162;BME280;70638;-33.792;151.032;2024-03-07T09:21:23;101768.05;;;23.02;100.00
81162;BME280;70638;-33.792;151.032;2024-03-07T09:23:53;101766.46;;;22.97;100.00
81162;BME280;70638;-33.792;151.032;2024-03-07T09:26:24;101774.11;;;22.92;100.00
81162;BME280;70638;-33.792;151.032;2024-03-07T09:28:55;101778.77;;;22.90;100.00
81162;BME280;70638;-33.792;151.032;2024-03-07T09:31:26;101780.14;;;22.89;100.00
81162;BME280;70638;-33.792;151.032;2024-03-07T09:33:57;101788.97;;;22.88;100.00
81162;BME280;70638;-33.792;151.032;2024-03-07T09:36:26;101791.20;;;22.88;100.00
81162;BME280;70638;-33.792;151.032;2024-03-07T09:38:57;101794.09;;;22.92;100.00
81162;BME280;70638;-33.792;151.032;2024-03-07T09:41:31;101801.45;;;22.95;100.00
81162;BME280;70638;-33.792;151.032;2024-03-07T09:44:00;101808.34;;;22.92;100.00
81162;BME280;70638;-33.792;151.032;2024-03-07T09:46:29;101819.59;;;22.89;100.00
81162;BME280;70638;-33.792;151.032;2024-03-07T09:48:59;101818.53;;;22.84;100.00
81162;BME280;70638;-33.792;151.032;2024-03-07T09:51:29;101822.30;;;22.85;100.00
81162;BME280;70638;-33.792;151.032;2024-03-07T09:54:01;101823.59;;;22.84;100.00
81162;BME280;70638;-33.792;151.032;2024-03-07T09:56:31;101829.71;;;22.77;100.00
81162;BME280;70638;-33.792;151.032;2024-03-07T09:59:12;101827.44;;;22.72;100.00
81162;BME280;70638;-33.792;151.032;2024-03-07T10:01:34;101832.97;;;22.66;100.00
81162;BME280;70638;-33.792;151.032;2024-03-07T10:04:25;101838.74;;;22.65;100.00
81162;BME280;70638;-33.792;151.032;2024-03-07T10:06:41;101841.92;;;22.65;100.00
81162;BME280;70638;-33.792;151.032;2024-03-07T10:09:03;101845.28;;;22.71;100.00
81162;BME280;70638;-33.792;151.032;2024-03-07T10:11:34;101843.94;;;22.70;100.00
81162;BME280;70638;-33.792;151.032;2024-03-07T10:14:07;101835.79;;;22.68;100.00
81162;BME280;70638;-33.792;151.032;2024-03-07T10:16:38;101838.39;;;22.67;100.00
81162;BME280;70638;-33.792;151.032;2024-03-07T10:19:05;101847.73;;;22.67;100.00
81162;BME280;70638;-33.792;151.032;2024-03-07T10:21:36;101850.14;;;22.67;100.00
81162;BME280;70638;-33.792;151.032;2024-03-07T10:24:08;101851.79;;;22.62;100.00
81162;BME280;70638;-33.792;151.032;2024-03-07T10:26:40;101855.23;;;22.60;100.00
81162;BME280;70638;-33.792;151.032;2024-03-07T10:29:17;101856.34;;;22.61;100.00
81162;BME280;70638;-33.792;151.032;2024-03-07T10:31:43;101855.92;;;22.58;100.00
81162;BME280;70638;-33.792;151.032;2024-03-07T10:34:10;101859.42;;;22.64;100.00
81162;BME280;70638;-33.792;151.032;2024-03-07T10:36:39;101867.11;;;22.64;100.00
81162;BME280;70638;-33.792;151.032;2024-03-07T10:39:23;101869.38;;;22.62;100.00
81162;BME280;70638;-33.792;151.032;2024-03-07T10:41:45;101869.98;;;22.58;100.00
81162;BME280;70638;-33.792;151.032;2024-03-07T10:44:20;101871.62;;;22.59;100.00
81162;BME280;70638;-33.792;151.032;2024-03-07T10:47:09;101874.89;;;22.57;100.00
81162;BME280;70638;-33.792;151.032;2024-03-07T10:49:16;101876.88;;;22.51;100.00
81162;BME280;70638;-33.792;151.032;2024-03-07T10:51:46;101871.86;;;22.48;100.00
81162;BME280;70638;-33.792;151.032;2024-03-07T10:54:34;101873.48;;;22.45;100.00
81162;BME280;70638;-33.792;151.032;2024-03-07T10:59:22;101880.09;;;22.29;100.00
81162;BME280;70638;-33.792;151.032;2024-03-07T11:04:21;101886.14;;;22.20;100.00
81162;BME280;70638;-33.792;151.032;2024-03-07T11:06:47;101887.78;;;22.13;100.00
81162;BME280;70638;-33.792;151.032;2024-03-07T11:09:32;101890.27;;;22.11;100.00
81162;BME280;70638;-33.792;151.032;2024-03-07T11:11:47;101891.45;;;22.13;100.00
81162;BME280;70638;-33.792;151.032;2024-03-07T11:14:25;101896.42;;;22.20;100.00
81162;BME280;70638;-33.792;151.032;2024-03-07T11:16:49;101899.06;;;22.23;100.00
81162;BME280;70638;-33.792;151.032;2024-03-07T11:19:38;101891.36;;;22.21;100.00
81162;BME280;70638;-33.792;151.032;2024-03-07T11:21:51;101893.41;;;22.21;100.00
81162;BME280;70638;-33.792;151.032;2024-03-07T11:24:30;101895.23;;;22.19;100.00
81162;BME280;70638;-33.792;151.032;2024-03-07T11:26:58;101896.66;;;22.16;100.00
81162;BME280;70638;-33.792;151.032;2024-03-07T11:29:42;101898.12;;;22.15;100.00
81162;BME280;70638;-33.792;151.032;2024-03-07T11:31:54;101901.50;;;22.19;100.00
81162;BME280;70638;-33.792;151.032;2024-03-07T11:34:32;101900.17;;;22.23;100.00
81162;BME280;70638;-33.792;151.032;2024-03-07T11:37:01;101901.72;;;22.27;100.00
81162;BME280;70638;-33.792;151.032;2024-03-07T11:39:43;101900.34;;;22.27;100.00
81162;BME280;70638;-33.792;151.032;2024-03-07T11:41:55;101906.48;;;22.31;100.00
81162;BME280;70638;-33.792;151.032;2024-03-07T11:44:26;101904.12;;;22.41;100.00
81162;BME280;70638;-33.792;151.032;2024-03-07T11:46:57;101902.83;;;22.40;100.00
81162;BME280;70638;-33.792;151.032;2024-03-07T11:49:27;101904.71;;;22.40;100.00
81162;BME280;70638;-33.792;151.032;2024-03-07T11:51:57;101904.05;;;22.34;100.00
81162;BME280;70638;-33.792;151.032;2024-03-07T11:54:30;101902.84;;;22.22;100.00
81162;BME280;70638;-33.792;151.032;2024-03-07T11:57:00;101905.48;;;22.15;100.00
81162;BME280;70638;-33.792;151.032;2024-03-07T11:59:32;101906.66;;;22.03;100.00
81162;BME280;70638;-33.792;151.032;2024-03-07T12:02:03;101912.52;;;21.95;100.00
81162;BME280;70638;-33.792;151.032;2024-03-07T12:04:29;101915.11;;;21.89;100.00
81162;BME280;70638;-33.792;151.032;2024-03-07T12:07:03;101916.39;;;21.88;100.00
81162;BME280;70638;-33.792;151.032;2024-03-07T12:09:41;101913.58;;;21.82;100.00
81162;BME280;70638;-33.792;151.032;2024-03-07T12:12:07;101917.59;;;21.83;100.00
81162;BME280;70638;-33.792;151.032;2024-03-07T12:14:32;101916.38;;;21.88;100.00
81162;BME280;70638;-33.792;151.032;2024-03-07T12:17:07;101916.88;;;21.94;100.00
81162;BME280;70638;-33.792;151.032;2024-03-07T12:19:46;101915.33;;;21.94;100.00
81162;BME280;70638;-33.792;151.032;2024-03-07T12:22:08;101911.48;;;21.91;100.00
81162;BME280;70638;-33.792;151.032;2024-03-07T12:24:33;101911.08;;;21.90;100.00
81162;BME280;70638;-33.792;151.032;2024-03-07T12:27:06;101911.50;;;21.83;100.00
81162;BME280;70638;-33.792;151.032;2024-03-07T12:29:34;101913.32;;;21.87;100.00
81162;BME280;70638;-33.792;151.032;2024-03-07T12:32:07;101919.88;;;21.91;100.00